sensor_id;sensor_type;location;lat;lon;timestamp;pressure;altitude;pressure_sealevel;temperature;humidity
51289;BME280;37372;52.294;5.152;2023-05-02T00:01:23;102035.44;;;10.25;83.25
51289;BME280;37372;52.294;5.152;2023-05-02T00:03:49;102040.91;;;10.25;83.65
51289;BME280;37372;52.294;5.152;2023-05-02T00:06:15;102032.19;;;10.22;83.33
51289;BME280;37372;52.294;5.152;2023-05-02T00:08:49;102031.94;;;10.17;84.41
51289;BME280;37372;52.294;5.152;2023-05-02T00:11:15;102037.03;;;10.20;83.80
51289;BME280;37372;52.294;5.152;2023-05-02T00:13:40;102043.69;;;10.11;84.31
51289;BME280;37372;52.294;5.152;2023-05-02T00:16:11;102034.88;;;10.15;84.65
51289;BME280;37372;52.294;5.152;2023-05-02T00:18:38;102038.03;;;10.12;84.19
51289;BME280;37372;52.294;5.152;2023-05-02T00:21:03;102038.41;;;10.09;84.61
51289;BME280;37372;52.294;5.152;2023-05-02T00:23:29;102048.31;;;10.10;84.91
51289;BME280;37372;52.294;5.152;2023-05-02T00:25:54;102051.06;;;10.10;84.71
51289;BME280;37372;52.294;5.152;2023-05-02T00:28:20;102044.78;;;10.16;84.81
51289;BME280;37372;52.294;5.152;2023-05-02T00:30:45;102047.94;;;10.13;84.37
51289;BME280;37372;52.294;5.152;2023-05-02T00:33:11;102052.59;;;10.13;84.69
51289;BME280;37372;52.294;5.152;2023-05-02T00:35:45;102056.38;;;10.12;84.79
51289;BME280;37372;52.294;5.152;2023-05-02T00:38:11;102046.63;;;10.09;83.52
51289;BME280;37372;52.294;5.152;2023-05-02T00:40:48;102061.75;;;9.98;83.29
51289;BME280;37372;52.294;5.152;2023-05-02T00:43:16;102067.81;;;9.94;83.57
51289;BME280;37372;52.294;5.152;2023-05-02T00:45:51;102075.50;;;9.84;83.58
51289;BME280;37372;52.294;5.152;2023-05-02T00:48:16;102078.59;;;9.74;83.12
51289;BME280;37372;52.294;5.152;2023-05-02T00:50:48;102077.19;;;9.63;82.85
51289;BME280;37372;52.294;5.152;2023-05-02T00:53:13;102082.47;;;9.65;82.77
51289;BME280;37372;52.294;5.152;2023-05-02T00:55:42;102094.19;;;9.73;82.38
51289;BME280;37372;52.294;5.152;2023-05-02T00:58:17;102089.28;;;9.69;82.15
51289;BME280;37372;52.294;5.152;2023-05-02T01:00:48;102098.47;;;9.61;81.08
51289;BME280;37372;52.294;5.152;2023-05-02T01:12:17;102095.06;;;9.59;80.76
51289;BME280;37372;52.294;5.152;2023-05-02T01:14:53;102094.63;;;9.56;81.65
51289;BME280;37372;52.294;5.152;2023-05-02T01:17:23;102091.66;;;9.57;80.71
51289;BME280;37372;52.294;5.152;2023-05-02T01:20:02;102100.09;;;9.56;79.53
51289;BME280;37372;52.294;5.152;2023-05-02T01:22:30;102094.13;;;9.52;79.37
51289;BME280;37372;52.294;5.152;2023-05-02T01:25:28;102098.69;;;9.45;79.22
51289;BME280;37372;52.294;5.152;2023-05-02T01:28:25;102112.50;;;9.37;78.76
51289;BME280;37372;52.294;5.152;2023-05-02T01:31:01;102112.41;;;9.30;77.63
51289;BME280;37372;52.294;5.152;2023-05-02T01:33:29;102113.84;;;9.26;76.95
51289;BME280;37372;52.294;5.152;2023-05-02T01:36:05;102118.25;;;9.27;76.72
51289;BME280;37372;52.294;5.152;2023-05-02T01:38:32;102110.66;;;9.22;76.60
51289;BME280;37372;52.294;5.152;2023-05-02T01:41:00;102111.09;;;9.26;76.60
51289;BME280;37372;52.294;5.152;2023-05-02T01:43:33;102107.72;;;9.24;76.68
51289;BME280;37372;52.294;5.152;2023-05-02T01:46:01;102114.50;;;9.28;75.89
51289;BME280;37372;52.294;5.152;2023-05-02T01:48:29;102119.78;;;9.30;75.77
51289;BME280;37372;52.294;5.152;2023-05-02T01:51:01;102129.22;;;9.27;76.26
51289;BME280;37372;52.294;5.152;2023-05-02T01:53:29;102137.19;;;9.22;76.70
51289;BME280;37372;52.294;5.152;2023-05-02T01:56:04;102138.03;;;9.22;76.52
51289;BME280;37372;52.294;5.152;2023-05-02T01:58:32;102146.03;;;9.24;76.42
51289;BME280;37372;52.294;5.152;2023-05-02T02:01:03;102147.09;;;9.23;76.60
51289;BME280;37372;52.294;5.152;2023-05-02T02:03:30;102145.19;;;9.23;77.01
51289;BME280;37372;52.294;5.152;2023-05-02T02:05:58;102142.81;;;9.20;77.40
51289;BME280;37372;52.294;5.152;2023-05-02T02:08:35;102153.53;;;9.15;77.01
51289;BME280;37372;52.294;5.152;2023-05-02T02:11:08;102160.09;;;9.06;76.83
51289;BME280;37372;52.294;5.152;2023-05-02T02:13:44;102159.91;;;9.08;77.23
51289;BME280;37372;52.294;5.152;2023-05-02T02:16:20;102161.44;;;9.10;77.08
51289;BME280;37372;52.294;5.152;2023-05-02T02:18:49;102158.16;;;9.15;77.44
51289;BME280;37372;52.294;5.152;2023-05-02T02:21:17;102166.34;;;9.15;76.98
51289;BME280;37372;52.294;5.152;2023-05-02T02:23:46;102176.06;;;9.17;76.66
51289;BME280;37372;52.294;5.152;2023-05-02T02:26:13;102172.84;;;9.14;76.64
51289;BME280;37372;52.294;5.152;2023-05-02T02:28:39;102167.22;;;9.15;76.42
51289;BME280;37372;52.294;5.152;2023-05-02T02:31:09;102174.19;;;9.18;76.13
51289;BME280;37372;52.294;5.152;2023-05-02T02:33:35;102178.72;;;9.11;76.20
51289;BME280;37372;52.294;5.152;2023-05-02T02:36:11;102183.06;;;9.05;76.66
51289;BME280;37372;52.294;5.152;2023-05-02T02:41:42;102184.19;;;8.96;76.40
51289;BME280;37372;52.294;5.152;2023-05-02T02:44:31;102182.94;;;8.99;77.30
51289;BME280;37372;52.294;5.152;2023-05-02T02:49:58;102185.88;;;8.97;76.94
51289;BME280;37372;52.294;5.152;2023-05-02T02:52:39;102190.69;;;8.95;76.98
51289;BME280;37372;52.294;5.152;2023-05-02T02:55:23;102196.72;;;8.90;76.37
51289;BME280;37372;52.294;5.152;2023-05-02T02:58:09;102200.88;;;8.86;76.43
51289;BME280;37372;52.294;5.152;2023-05-02T03:00:39;102208.03;;;8.87;76.49
51289;BME280;37372;52.294;5.152;2023-05-02T03:03:10;102208.78;;;8.81;77.17
51289;BME280;37372;52.294;5.152;2023-05-02T03:05:37;102215.41;;;8.87;77.15
51289;BME280;37372;52.294;5.152;2023-05-02T03:08:03;102225.69;;;8.85;76.44
51289;BME280;37372;52.294;5.152;2023-05-02T03:10:29;102221.06;;;8.85;75.43
51289;BME280;37372;52.294;5.152;2023-05-02T03:12:54;102233.97;;;8.77;75.57
51289;BME280;37372;52.294;5.152;2023-05-02T03:18:16;102228.31;;;8.78;76.14
51289;BME280;37372;52.294;5.152;2023-05-02T03:20:42;102220.84;;;8.72;75.51
51289;BME280;37372;52.294;5.152;2023-05-02T03:23:08;102235.59;;;8.63;75.50
51289;BME280;37372;52.294;5.152;2023-05-02T03:25:36;102232.09;;;8.54;74.15
51289;BME280;37372;52.294;5.152;2023-05-02T03:28:06;102245.97;;;8.53;74.27
51289;BME280;37372;52.294;5.152;2023-05-02T03:30:32;102241.22;;;8.47;75.11
51289;BME280;37372;52.294;5.152;2023-05-02T03:32:58;102259.00;;;8.51;75.61
51289;BME280;37372;52.294;5.152;2023-05-02T03:35:24;102252.66;;;8.50;75.74
51289;BME280;37372;52.294;5.152;2023-05-02T03:37:50;102256.06;;;8.52;76.20
51289;BME280;37372;52.294;5.152;2023-05-02T03:40:16;102258.06;;;8.58;76.78
51289;BME280;37372;52.294;5.152;2023-05-02T03:42:45;102257.50;;;8.63;76.65
51289;BME280;37372;52.294;5.152;2023-05-02T03:45:11;102259.88;;;8.66;75.79
51289;BME280;37372;52.294;5.152;2023-05-02T03:47:38;102265.88;;;8.61;75.61
51289;BME280;37372;52.294;5.152;2023-05-02T03:50:05;102272.22;;;8.62;76.36
51289;BME280;37372;52.294;5.152;2023-05-02T03:52:32;102269.00;;;8.58;76.77
51289;BME280;37372;52.294;5.152;2023-05-02T03:55:06;102276.16;;;8.59;77.08
51289;BME280;37372;52.294;5.152;2023-05-02T03:57:32;102267.31;;;8.57;77.17
51289;BME280;37372;52.294;5.152;2023-05-02T04:00:05;102266.28;;;8.58;77.45
51289;BME280;37372;52.294;5.152;2023-05-02T04:02:33;102279.09;;;8.58;77.11
51289;BME280;37372;52.294;5.152;2023-05-02T04:05:05;102284.91;;;8.55;77.14
51289;BME280;37372;52.294;5.152;2023-05-02T04:07:33;102287.31;;;8.58;79.12
51289;BME280;37372;52.294;5.152;2023-05-02T04:10:06;102281.16;;;8.56;77.30
51289;BME280;37372;52.294;5.152;2023-05-02T04:12:39;102286.94;;;8.61;75.96
51289;BME280;37372;52.294;5.152;2023-05-02T04:15:09;102282.91;;;8.49;75.95
51289;BME280;37372;52.294;5.152;2023-05-02T04:17:44;102285.53;;;8.42;76.18
51289;BME280;37372;52.294;5.152;2023-05-02T04:20:14;102292.53;;;8.45;75.87
51289;BME280;37372;52.294;5.152;2023-05-02T04:22:40;102287.19;;;8.51;76.52
51289;BME280;37372;52.294;5.152;2023-05-02T04:25:08;102295.72;;;8.48;75.33
51289;BME280;37372;52.294;5.152;2023-05-02T04:27:34;102297.09;;;8.52;74.73
51289;BME280;37372;52.294;5.152;2023-05-02T04:30:12;102305.09;;;8.54;74.57
51289;BME280;37372;52.294;5.152;2023-05-02T04:32:39;102310.22;;;8.57;74.14
51289;BME280;37372;52.294;5.152;2023-05-02T04:35:07;102317.09;;;8.53;73.21
51289;BME280;37372;52.294;5.152;2023-05-02T04:37:41;102315.69;;;8.57;72.28
51289;BME280;37372;52.294;5.152;2023-05-02T04:40:15;102325.22;;;8.61;73.15
51289;BME280;37372;52.294;5.152;2023-05-02T04:42:40;102335.13;;;8.62;73.41
51289;BME280;37372;52.294;5.152;2023-05-02T04:45:14;102333.44;;;8.61;72.45
51289;BME280;37372;52.294;5.152;2023-05-02T04:47:39;102336.97;;;8.70;71.84
51289;BME280;37372;52.294;5.152;2023-05-02T04:50:06;102340.78;;;8.60;71.99
51289;BME280;37372;52.294;5.152;2023-05-02T04:52:52;102339.56;;;8.63;72.05
51289;BME280;37372;52.294;5.152;2023-05-02T04:55:18;102340.78;;;8.60;71.44
51289;BME280;37372;52.294;5.152;2023-05-02T04:57:44;102345.41;;;8.60;71.84
51289;BME280;37372;52.294;5.152;2023-05-02T05:00:18;102352.94;;;8.58;72.82
51289;BME280;37372;52.294;5.152;2023-05-02T05:02:45;102364.94;;;8.57;73.24
51289;BME280;37372;52.294;5.152;2023-05-02T05:05:17;102376.47;;;8.44;72.94
51289;BME280;37372;52.294;5.152;2023-05-02T05:07:43;102374.31;;;8.54;71.93
51289;BME280;37372;52.294;5.152;2023-05-02T05:10:09;102379.84;;;8.46;70.89
51289;BME280;37372;52.294;5.152;2023-05-02T05:12:35;102379.84;;;8.46;70.78
51289;BME280;37372;52.294;5.152;2023-05-02T05:15:01;102380.00;;;8.53;70.29
51289;BME280;37372;52.294;5.152;2023-05-02T05:17:27;102384.59;;;8.52;70.96
51289;BME280;37372;52.294;5.152;2023-05-02T05:19:53;102382.72;;;8.53;69.87
51289;BME280;37372;52.294;5.152;2023-05-02T05:22:18;102377.56;;;8.58;69.65
51289;BME280;37372;52.294;5.152;2023-05-02T05:24:50;102388.84;;;8.55;68.10
51289;BME280;37372;52.294;5.152;2023-05-02T05:27:16;102385.78;;;8.58;68.62
51289;BME280;37372;52.294;5.152;2023-05-02T05:29:42;102389.97;;;8.68;68.86
51289;BME280;37372;52.294;5.152;2023-05-02T05:32:07;102390.53;;;8.64;67.83
51289;BME280;37372;52.294;5.152;2023-05-02T05:34:32;102397.38;;;8.60;66.30
51289;BME280;37372;52.294;5.152;2023-05-02T05:36:59;102395.94;;;8.72;65.85
51289;BME280;37372;52.294;5.152;2023-05-02T05:39:24;102398.88;;;8.71;66.09
51289;BME280;37372;52.294;5.152;2023-05-02T05:41:50;102397.59;;;8.81;65.81
51289;BME280;37372;52.294;5.152;2023-05-02T05:44:15;102400.03;;;8.76;65.43
51289;BME280;37372;52.294;5.152;2023-05-02T05:46:49;102414.00;;;8.81;64.24
51289;BME280;37372;52.294;5.152;2023-05-02T05:49:15;102418.47;;;8.82;65.31
51289;BME280;37372;52.294;5.152;2023-05-02T05:51:41;102419.25;;;8.91;65.20
51289;BME280;37372;52.294;5.152;2023-05-02T05:54:06;102425.91;;;8.88;63.19
51289;BME280;37372;52.294;5.152;2023-05-02T05:56:32;102428.63;;;8.97;63.71
51289;BME280;37372;52.294;5.152;2023-05-02T05:58:58;102420.03;;;9.00;62.24
51289;BME280;37372;52.294;5.152;2023-05-02T06:01:23;102432.03;;;8.99;61.50
51289;BME280;37372;52.294;5.152;2023-05-02T06:03:49;102438.22;;;8.92;64.58
51289;BME280;37372;52.294;5.152;2023-05-02T06:06:21;102445.91;;;8.97;65.73
51289;BME280;37372;52.294;5.152;2023-05-02T06:08:46;102446.97;;;8.88;68.19
51289;BME280;37372;52.294;5.152;2023-05-02T06:11:11;102447.47;;;8.91;68.17
51289;BME280;37372;52.294;5.152;2023-05-02T06:13:37;102462.53;;;8.87;68.00
51289;BME280;37372;52.294;5.152;2023-05-02T06:16:04;102468.31;;;8.92;68.05
51289;BME280;37372;52.294;5.152;2023-05-02T06:18:29;102465.84;;;9.06;66.87
51289;BME280;37372;52.294;5.152;2023-05-02T06:20:54;102474.25;;;9.04;67.00
51289;BME280;37372;52.294;5.152;2023-05-02T06:23:20;102485.19;;;8.73;68.95
51289;BME280;37372;52.294;5.152;2023-05-02T06:25:45;102488.63;;;8.67;71.30
51289;BME280;37372;52.294;5.152;2023-05-02T06:28:11;102495.91;;;8.52;72.00
51289;BME280;37372;52.294;5.152;2023-05-02T06:30:37;102495.19;;;8.58;71.92
51289;BME280;37372;52.294;5.152;2023-05-02T06:33:04;102504.44;;;8.57;72.03
51289;BME280;37372;52.294;5.152;2023-05-02T06:35:33;102504.06;;;8.60;72.70
51289;BME280;37372;52.294;5.152;2023-05-02T06:38:06;102501.72;;;8.49;71.98
51289;BME280;37372;52.294;5.152;2023-05-02T06:40:36;102514.75;;;8.38;72.24
51289;BME280;37372;52.294;5.152;2023-05-02T06:43:10;102514.31;;;8.66;71.60
51289;BME280;37372;52.294;5.152;2023-05-02T06:45:39;102512.22;;;8.68;69.53
51289;BME280;37372;52.294;5.152;2023-05-02T06:48:09;102517.13;;;8.81;68.82
51289;BME280;37372;52.294;5.152;2023-05-02T06:50:36;102520.25;;;9.09;67.46
51289;BME280;37372;52.294;5.152;2023-05-02T06:53:05;102531.50;;;9.14;66.04
51289;BME280;37372;52.294;5.152;2023-05-02T06:56:06;102534.03;;;9.23;65.19
51289;BME280;37372;52.294;5.152;2023-05-02T06:58:24;102541.69;;;9.28;66.08
51289;BME280;37372;52.294;5.152;2023-05-02T07:00:50;102537.75;;;9.00;64.50
51289;BME280;37372;52.294;5.152;2023-05-02T07:03:16;102546.31;;;8.97;63.84
51289;BME280;37372;52.294;5.152;2023-05-02T07:05:42;102543.47;;;9.21;63.38
51289;BME280;37372;52.294;5.152;2023-05-02T07:08:07;102551.69;;;9.21;65.34
51289;BME280;37372;52.294;5.152;2023-05-02T07:10:34;102554.84;;;9.33;65.05
51289;BME280;37372;52.294;5.152;2023-05-02T07:13:06;102554.03;;;9.24;64.27
51289;BME280;37372;52.294;5.152;2023-05-02T07:15:31;102558.41;;;9.10;65.00
51289;BME280;37372;52.294;5.152;2023-05-02T07:18:00;102559.31;;;9.26;64.74
51289;BME280;37372;52.294;5.152;2023-05-02T07:20:26;102561.63;;;9.14;64.31
51289;BME280;37372;52.294;5.152;2023-05-02T07:22:52;102566.94;;;9.15;65.11
51289;BME280;37372;52.294;5.152;2023-05-02T07:25:18;102564.72;;;9.11;64.02
51289;BME280;37372;52.294;5.152;2023-05-02T07:27:44;102579.22;;;9.19;63.84
51289;BME280;37372;52.294;5.152;2023-05-02T07:30:13;102582.53;;;9.07;63.01
51289;BME280;37372;52.294;5.152;2023-05-02T07:32:38;102588.78;;;9.23;64.45
51289;BME280;37372;52.294;5.152;2023-05-02T07:35:05;102579.91;;;9.21;63.11
51289;BME280;37372;52.294;5.152;2023-05-02T07:37:32;102585.09;;;9.39;63.01
51289;BME280;37372;52.294;5.152;2023-05-02T07:40:02;102586.50;;;9.58;61.03
51289;BME280;37372;52.294;5.152;2023-05-02T07:42:29;102590.31;;;9.80;61.67
51289;BME280;37372;52.294;5.152;2023-05-02T07:44:56;102590.00;;;9.75;60.43
51289;BME280;37372;52.294;5.152;2023-05-02T07:47:22;102589.03;;;9.68;59.25
51289;BME280;37372;52.294;5.152;2023-05-02T07:49:51;102588.78;;;10.00;60.02
51289;BME280;37372;52.294;5.152;2023-05-02T07:52:18;102586.28;;;9.68;60.28
51289;BME280;37372;52.294;5.152;2023-05-02T07:54:44;102592.81;;;9.67;61.44
51289;BME280;37372;52.294;5.152;2023-05-02T07:57:15;102590.66;;;9.77;61.64
51289;BME280;37372;52.294;5.152;2023-05-02T07:59:41;102601.41;;;9.87;61.78
51289;BME280;37372;52.294;5.152;2023-05-02T08:02:08;102598.31;;;10.04;60.34
51289;BME280;37372;52.294;5.152;2023-05-02T08:04:45;102601.16;;;9.73;61.32
51289;BME280;37372;52.294;5.152;2023-05-02T08:07:14;102604.13;;;9.87;60.01
51289;BME280;37372;52.294;5.152;2023-05-02T08:09:41;102609.44;;;10.11;58.67
51289;BME280;37372;52.294;5.152;2023-05-02T08:12:07;102606.88;;;9.87;59.01
51289;BME280;37372;52.294;5.152;2023-05-02T08:14:32;102611.19;;;9.81;59.38
51289;BME280;37372;52.294;5.152;2023-05-02T08:16:59;102613.56;;;10.30;57.44
51289;BME280;37372;52.294;5.152;2023-05-02T08:19:25;102615.44;;;10.29;56.66
51289;BME280;37372;52.294;5.152;2023-05-02T08:21:53;102609.25;;;10.13;56.82
51289;BME280;37372;52.294;5.152;2023-05-02T08:24:19;102621.66;;;10.23;57.38
51289;BME280;37372;52.294;5.152;2023-05-02T08:26:48;102616.97;;;10.32;56.82
51289;BME280;37372;52.294;5.152;2023-05-02T08:29:23;102619.63;;;10.25;57.11
51289;BME280;37372;52.294;5.152;2023-05-02T08:31:48;102624.28;;;10.54;55.21
51289;BME280;37372;52.294;5.152;2023-05-02T08:34:14;102625.41;;;10.30;54.80
51289;BME280;37372;52.294;5.152;2023-05-02T08:36:40;102621.53;;;10.40;58.38
51289;BME280;37372;52.294;5.152;2023-05-02T08:39:06;102633.22;;;10.56;55.70
51289;BME280;37372;52.294;5.152;2023-05-02T08:41:34;102644.09;;;10.79;54.47
51289;BME280;37372;52.294;5.152;2023-05-02T08:44:00;102644.53;;;9.93;56.85
51289;BME280;37372;52.294;5.152;2023-05-02T08:46:27;102649.25;;;10.22;56.54
51289;BME280;37372;52.294;5.152;2023-05-02T08:48:54;102646.72;;;10.43;55.85
51289;BME280;37372;52.294;5.152;2023-05-02T08:51:24;102656.38;;;10.54;53.90
51289;BME280;37372;52.294;5.152;2023-05-02T08:53:57;102655.69;;;10.37;52.49
51289;BME280;37372;52.294;5.152;2023-05-02T08:56:30;102659.22;;;10.61;53.90
51289;BME280;37372;52.294;5.152;2023-05-02T08:58:58;102662.59;;;10.48;53.00
51289;BME280;37372;52.294;5.152;2023-05-02T09:01:29;102659.53;;;10.28;52.52
51289;BME280;37372;52.294;5.152;2023-05-02T09:03:57;102658.81;;;10.49;52.95
51289;BME280;37372;52.294;5.152;2023-05-02T09:06:32;102661.81;;;10.24;52.03
51289;BME280;37372;52.294;5.152;2023-05-02T09:08:59;102671.25;;;10.60;52.92
51289;BME280;37372;52.294;5.152;2023-05-02T09:11:25;102673.75;;;10.84;48.77
51289;BME280;37372;52.294;5.152;2023-05-02T09:13:51;102677.56;;;10.45;52.04
51289;BME280;37372;52.294;5.152;2023-05-02T09:16:18;102678.53;;;10.67;51.04
51289;BME280;37372;52.294;5.152;2023-05-02T09:18:55;102688.06;;;11.09;50.52
51289;BME280;37372;52.294;5.152;2023-05-02T09:21:24;102683.78;;;11.36;50.18
51289;BME280;37372;52.294;5.152;2023-05-02T09:23:54;102685.19;;;11.32;51.09
51289;BME280;37372;52.294;5.152;2023-05-02T09:26:29;102686.13;;;11.54;51.26
51289;BME280;37372;52.294;5.152;2023-05-02T09:29:00;102688.66;;;11.70;49.56
51289;BME280;37372;52.294;5.152;2023-05-02T09:31:34;102699.63;;;11.34;49.42
51289;BME280;37372;52.294;5.152;2023-05-02T09:34:12;102696.13;;;11.40;48.33
51289;BME280;37372;52.294;5.152;2023-05-02T09:36:46;102708.25;;;11.16;48.88
51289;BME280;37372;52.294;5.152;2023-05-02T09:39:28;102700.56;;;11.11;47.81
51289;BME280;37372;52.294;5.152;2023-05-02T09:41:54;102712.31;;;11.35;47.29
51289;BME280;37372;52.294;5.152;2023-05-02T09:44:22;102708.81;;;11.41;48.08
51289;BME280;37372;52.294;5.152;2023-05-02T09:46:50;102716.25;;;11.62;47.28
51289;BME280;37372;52.294;5.152;2023-05-02T09:52:14;102704.50;;;11.68;47.07
51289;BME280;37372;52.294;5.152;2023-05-02T09:54:41;102707.75;;;11.12;47.14
51289;BME280;37372;52.294;5.152;2023-05-02T09:57:07;102709.56;;;11.35;46.67
51289;BME280;37372;52.294;5.152;2023-05-02T09:59:34;102721.19;;;11.66;46.27
51289;BME280;37372;52.294;5.152;2023-05-02T10:02:05;102719.69;;;11.49;46.30
51289;BME280;37372;52.294;5.152;2023-05-02T10:04:35;102713.56;;;11.98;45.33
51289;BME280;37372;52.294;5.152;2023-05-02T10:07:02;102710.13;;;11.96;46.66
51289;BME280;37372;52.294;5.152;2023-05-02T10:09:34;102711.72;;;11.25;46.27
51289;BME280;37372;52.294;5.152;2023-05-02T10:12:01;102720.25;;;11.59;46.33
51289;BME280;37372;52.294;5.152;2023-05-02T10:14:40;102725.47;;;11.54;46.32
51289;BME280;37372;52.294;5.152;2023-05-02T10:17:22;102727.94;;;11.20;46.96
51289;BME280;37372;52.294;5.152;2023-05-02T10:20:02;102726.22;;;11.19;46.67
51289;BME280;37372;52.294;5.152;2023-05-02T10:22:29;102733.41;;;11.20;44.51
51289;BME280;37372;52.294;5.152;2023-05-02T10:24:58;102733.50;;;10.82;45.43
51289;BME280;37372;52.294;5.152;2023-05-02T10:27:32;102727.53;;;10.93;46.05
51289;BME280;37372;52.294;5.152;2023-05-02T10:29:59;102737.03;;;11.20;49.27
51289;BME280;37372;52.294;5.152;2023-05-02T10:32:28;102745.81;;;11.01;45.47
51289;BME280;37372;52.294;5.152;2023-05-02T10:34:56;102736.91;;;10.99;45.71
51289;BME280;37372;52.294;5.152;2023-05-02T10:37:31;102736.25;;;10.97;48.20
51289;BME280;37372;52.294;5.152;2023-05-02T10:40:00;102744.78;;;11.02;49.35
51289;BME280;37372;52.294;5.152;2023-05-02T10:42:26;102743.19;;;11.37;48.08
51289;BME280;37372;52.294;5.152;2023-05-02T10:44:53;102758.84;;;11.22;45.98
51289;BME280;37372;52.294;5.152;2023-05-02T10:47:23;102748.13;;;11.86;45.60
51289;BME280;37372;52.294;5.152;2023-05-02T10:49:55;102741.00;;;11.62;47.20
51289;BME280;37372;52.294;5.152;2023-05-02T10:52:31;102751.25;;;11.38;45.28
51289;BME280;37372;52.294;5.152;2023-05-02T10:55:21;102748.00;;;10.91;45.32
51289;BME280;37372;52.294;5.152;2023-05-02T11:00:28;102736.19;;;11.34;46.26
51289;BME280;37372;52.294;5.152;2023-05-02T11:02:55;102747.94;;;11.43;48.22
51289;BME280;37372;52.294;5.152;2023-05-02T11:05:21;102754.66;;;11.41;48.07
51289;BME280;37372;52.294;5.152;2023-05-02T11:10:42;102760.13;;;11.85;47.77
51289;BME280;37372;52.294;5.152;2023-05-02T11:13:10;102754.91;;;11.90;45.03
51289;BME280;37372;52.294;5.152;2023-05-02T11:18:05;102760.94;;;12.36;46.27
51289;BME280;37372;52.294;5.152;2023-05-02T11:20:40;102756.69;;;12.34;43.77
51289;BME280;37372;52.294;5.152;2023-05-02T11:25:48;102764.69;;;11.63;44.83
51289;BME280;37372;52.294;5.152;2023-05-02T11:31:54;102765.06;;;11.89;46.69
51289;BME280;37372;52.294;5.152;2023-05-02T11:34:03;102773.50;;;11.58;46.54
51289;BME280;37372;52.294;5.152;2023-05-02T11:36:37;102758.34;;;11.62;43.75
51289;BME280;37372;52.294;5.152;2023-05-02T11:39:03;102757.66;;;11.75;44.97
51289;BME280;37372;52.294;5.152;2023-05-02T11:41:41;102765.38;;;11.50;45.21
51289;BME280;37372;52.294;5.152;2023-05-02T11:44:09;102765.72;;;11.77;47.30
51289;BME280;37372;52.294;5.152;2023-05-02T11:46:39;102768.84;;;11.59;46.56
51289;BME280;37372;52.294;5.152;2023-05-02T11:49:06;102773.31;;;11.45;46.49
51289;BME280;37372;52.294;5.152;2023-05-02T11:51:46;102774.78;;;10.89;47.82
51289;BME280;37372;52.294;5.152;2023-05-02T11:54:20;102776.22;;;10.99;45.98
51289;BME280;37372;52.294;5.152;2023-05-02T11:56:49;102779.34;;;10.96;46.81
51289;BME280;37372;52.294;5.152;2023-05-02T11:59:15;102779.09;;;11.21;48.87
51289;BME280;37372;52.294;5.152;2023-05-02T12:01:48;102783.72;;;11.20;46.38
51289;BME280;37372;52.294;5.152;2023-05-02T12:04:14;102786.56;;;11.27;46.82
51289;BME280;37372;52.294;5.152;2023-05-02T12:06:56;102789.16;;;11.73;47.76
51289;BME280;37372;52.294;5.152;2023-05-02T12:09:22;102800.78;;;12.04;47.50
51289;BME280;37372;52.294;5.152;2023-05-02T12:11:52;102806.22;;;11.68;46.37
51289;BME280;37372;52.294;5.152;2023-05-02T12:14:28;102802.72;;;11.74;46.32
51289;BME280;37372;52.294;5.152;2023-05-02T12:16:56;102801.94;;;11.95;48.14
51289;BME280;37372;52.294;5.152;2023-05-02T12:19:23;102800.03;;;11.51;46.23
51289;BME280;37372;52.294;5.152;2023-05-02T12:21:52;102803.66;;;11.37;47.13
51289;BME280;37372;52.294;5.152;2023-05-02T12:24:20;102804.19;;;11.18;47.81
51289;BME280;37372;52.294;5.152;2023-05-02T12:26:53;102808.34;;;11.13;48.67
51289;BME280;37372;52.294;5.152;2023-05-02T12:29:40;102805.59;;;11.13;46.30
51289;BME280;37372;52.294;5.152;2023-05-02T12:32:06;102805.88;;;11.04;47.68
51289;BME280;37372;52.294;5.152;2023-05-02T12:34:33;102810.72;;;11.17;46.89
51289;BME280;37372;52.294;5.152;2023-05-02T12:37:00;102816.03;;;11.33;48.17
51289;BME280;37372;52.294;5.152;2023-05-02T12:39:39;102819.19;;;10.92;46.77
51289;BME280;37372;52.294;5.152;2023-05-02T12:42:19;102827.44;;;10.92;48.98
51289;BME280;37372;52.294;5.152;2023-05-02T12:44:46;102821.94;;;11.30;48.15
51289;BME280;37372;52.294;5.152;2023-05-02T12:47:15;102837.47;;;11.23;47.65
51289;BME280;37372;52.294;5.152;2023-05-02T12:49:51;102830.97;;;11.53;46.53
51289;BME280;37372;52.294;5.152;2023-05-02T12:52:18;102827.16;;;11.54;44.78
51289;BME280;37372;52.294;5.152;2023-05-02T12:54:44;102824.69;;;11.30;46.41
51289;BME280;37372;52.294;5.152;2023-05-02T12:57:21;102823.66;;;11.60;48.98
51289;BME280;37372;52.294;5.152;2023-05-02T12:59:47;102822.38;;;11.19;48.42
51289;BME280;37372;52.294;5.152;2023-05-02T13:02:12;102830.28;;;11.51;47.48
51289;BME280;37372;52.294;5.152;2023-05-02T13:04:39;102819.97;;;11.53;49.80
51289;BME280;37372;52.294;5.152;2023-05-02T13:07:06;102830.31;;;11.66;48.11
51289;BME280;37372;52.294;5.152;2023-05-02T13:09:31;102836.97;;;11.86;46.58
51289;BME280;37372;52.294;5.152;2023-05-02T13:12:00;102831.63;;;12.14;45.75
51289;BME280;37372;52.294;5.152;2023-05-02T13:14:28;102830.03;;;11.90;47.80
51289;BME280;37372;52.294;5.152;2023-05-02T13:17:00;102828.88;;;11.70;47.07
51289;BME280;37372;52.294;5.152;2023-05-02T13:19:29;102831.16;;;11.96;46.71
51289;BME280;37372;52.294;5.152;2023-05-02T13:22:01;102837.72;;;11.95;48.08
51289;BME280;37372;52.294;5.152;2023-05-02T13:24:28;102832.28;;;11.57;46.72
51289;BME280;37372;52.294;5.152;2023-05-02T13:27:03;102840.81;;;11.62;46.95
51289;BME280;37372;52.294;5.152;2023-05-02T13:29:29;102838.44;;;12.04;47.85
51289;BME280;37372;52.294;5.152;2023-05-02T13:32:04;102841.97;;;11.68;48.28
51289;BME280;37372;52.294;5.152;2023-05-02T13:34:31;102837.31;;;11.54;48.99
51289;BME280;37372;52.294;5.152;2023-05-02T13:37:06;102833.31;;;11.71;47.07
51289;BME280;37372;52.294;5.152;2023-05-02T13:39:31;102832.06;;;11.44;47.09
51289;BME280;37372;52.294;5.152;2023-05-02T13:42:12;102848.97;;;11.71;48.67